createdAt,value
2023-03-23T15:58:15.695Z,75.40
2023-03-23T16:00:44.487Z,74.90
2023-03-23T16:03:21.345Z,75.10
2023-03-23T16:05:48.446Z,74.90
2023-03-23T16:08:16.670Z,76.70
2023-03-23T16:10:44.553Z,76.00
2023-03-23T16:13:11.780Z,76.60
2023-03-23T16:15:38.708Z,77.70
2023-03-23T16:18:06.827Z,77.80
2023-03-23T16:20:34.306Z,76.70
2023-03-23T16:23:01.547Z,77.10
2023-03-23T16:25:29.817Z,78.20
2023-03-23T16:27:57.161Z,78.30
2023-03-23T16:30:26.465Z,78.40
2023-03-23T16:32:55.539Z,79.00
2023-03-23T16:35:24.787Z,79.00
2023-03-23T16:38:07.015Z,79.60
2023-03-23T16:40:34.825Z,80.70
2023-03-23T16:43:01.788Z,80.50
2023-03-23T16:45:36.297Z,81.50
2023-03-23T16:48:04.433Z,82.00
2023-03-23T16:50:32.033Z,83.00
2023-03-23T16:53:00.499Z,83.60
2023-03-23T16:55:28.540Z,85.10
2023-03-23T16:58:05.201Z,85.80
2023-03-23T17:00:41.742Z,86.50
2023-03-23T17:03:09.102Z,88.60
2023-03-23T17:05:37.790Z,88.90
2023-03-23T17:08:06.031Z,90.10
2023-03-23T17:10:33.892Z,90.80
2023-03-23T17:13:01.104Z,91.60
2023-03-23T17:15:28.640Z,91.30
2023-03-23T17:17:55.758Z,91.60
2023-03-23T17:20:23.586Z,92.00
2023-03-23T17:22:51.107Z,92.70
2023-03-23T17:25:18.622Z,92.40
2023-03-23T17:27:46.229Z,92.80
2023-03-23T17:30:13.662Z,94.00
2023-03-23T17:32:41.023Z,93.40
2023-03-23T17:35:08.529Z,93.80
2023-03-23T17:37:37.821Z,94.70
2023-03-23T17:40:08.534Z,94.90
2023-03-23T17:42:36.606Z,95.20
2023-03-23T17:45:06.480Z,94.50
2023-03-23T17:47:34.212Z,94.80
2023-03-23T17:50:11.547Z,95.50
2023-03-23T17:52:41.669Z,94.80
2023-03-23T17:55:09.890Z,95.50
2023-03-23T17:57:38.505Z,95.30
2023-03-23T18:00:09.208Z,95.60
2023-03-23T18:02:37.852Z,95.70
2023-03-23T18:05:06.623Z,96.20
2023-03-23T18:07:34.366Z,97.30
2023-03-23T18:10:02.146Z,96.60
2023-03-23T18:12:29.822Z,96.70
2023-03-23T18:14:58.656Z,97.10
2023-03-23T18:17:26.614Z,96.90
2023-03-23T18:24:24.325Z,97.00
2023-03-23T18:28:09.771Z,97.00
2023-03-23T18:31:09.125Z,97.40
2023-03-23T18:33:38.716Z,97.90
2023-03-23T18:36:08.034Z,98.20
2023-03-23T18:38:38.831Z,97.50
2023-03-23T18:41:11.572Z,97.30
2023-03-23T18:43:41.325Z,97.70
2023-03-23T18:46:10.345Z,96.70
2023-03-23T18:48:44.020Z,97.40
2023-03-23T18:51:14.957Z,97.30
2023-03-23T18:53:44.153Z,98.50
2023-03-23T18:56:25.790Z,97.70
2023-03-23T18:58:54.831Z,98.10
2023-03-23T19:01:30.403Z,98.20
2023-03-23T19:04:02.635Z,97.50
2023-03-23T19:06:36.906Z,97.60
2023-03-23T19:09:07.839Z,97.70
2023-03-23T19:11:41.151Z,97.70
2023-03-23T19:14:13.239Z,98.20
2023-03-23T19:16:42.854Z,97.90
2023-03-23T19:19:15.386Z,97.70
2023-03-23T19:21:46.997Z,98.10
2023-03-23T19:24:18.097Z,98.10
2023-03-23T19:26:53.200Z,98.30
2023-03-23T19:29:27.137Z,98.50
2023-03-23T19:32:03.113Z,98.40
2023-03-23T19:34:34.813Z,98.30
2023-03-23T19:37:13.225Z,98.30
2023-03-23T19:39:47.655Z,98.30
2023-03-23T19:42:21.893Z,98.60
2023-03-23T19:44:51.403Z,98.40
2023-03-23T19:47:24.954Z,98.40
2023-03-23T19:50:01.002Z,98.60
2023-03-23T19:52:31.173Z,98.80
2023-03-23T19:55:04.621Z,98.70
2023-03-23T19:57:35.192Z,98.70
2023-03-23T20:00:09.745Z,98.80
2023-03-23T20:02:42.217Z,99.00
2023-03-23T20:05:14.487Z,98.80
2023-03-23T20:07:51.421Z,98.80
2023-03-23T20:10:23.539Z,98.70
2023-03-23T20:12:55.319Z,98.90
2023-03-23T20:15:25.160Z,98.90
2023-03-23T20:17:57.777Z,99.50
2023-03-23T20:20:33.453Z,99.00
2023-03-23T20:23:08.446Z,99.40
2023-03-23T20:25:40.743Z,99.30
2023-03-23T20:28:16.760Z,99.00
2023-03-23T20:31:19.964Z,99.50
2023-03-23T20:33:39.865Z,99.10
2023-03-23T20:36:22.172Z,99.30
2023-03-23T20:38:52.792Z,99.70
2023-03-23T20:41:26.530Z,99.80
2023-03-23T20:43:56.121Z,99.90
2023-03-23T20:46:27.200Z,99.90
2023-03-23T20:49:03.975Z,99.90
2023-03-23T20:51:33.975Z,99.90
2023-03-23T20:54:06.192Z,99.90
2023-03-23T20:56:41.968Z,99.60
2023-03-23T20:59:12.551Z,99.70
2023-03-23T21:01:41.084Z,99.90
2023-03-23T21:04:15.756Z,99.70
2023-03-23T21:06:46.017Z,99.90
2023-03-23T21:09:14.613Z,99.90
2023-03-23T21:11:46.907Z,99.90
2023-03-23T21:14:23.250Z,99.90
2023-03-23T21:16:51.855Z,99.90
2023-03-23T21:19:22.226Z,99.90
2023-03-23T21:21:55.581Z,99.90
2023-03-23T21:24:30.284Z,99.90
2023-03-23T21:27:05.203Z,99.90
2023-03-23T21:29:33.745Z,99.90
2023-03-23T21:32:08.409Z,99.90
2023-03-23T21:34:37.355Z,99.90
2023-03-23T21:37:10.439Z,99.90
2023-03-23T21:39:41.500Z,99.90
2023-03-23T21:42:16.671Z,99.90
2023-03-23T21:44:44.451Z,99.90
2023-03-23T21:47:16.197Z,99.90
2023-03-23T21:49:46.060Z,99.90
2023-03-23T21:52:14.732Z,99.90
2023-03-23T21:54:45.018Z,99.90
2023-03-23T21:57:13.736Z,99.90
2023-03-23T21:59:41.950Z,99.90
2023-03-23T22:02:16.516Z,99.90
2023-03-23T22:04:45.019Z,99.90
2023-03-23T22:07:14.671Z,99.90
2023-03-23T22:09:45.383Z,99.90
2023-03-23T22:12:13.893Z,99.90
2023-03-23T22:14:44.915Z,99.90
2023-03-23T22:17:13.438Z,99.90
2023-03-23T22:19:45.399Z,99.90
2023-03-23T22:22:16.447Z,99.90
2023-03-23T22:24:44.439Z,99.90
2023-03-23T22:27:13.842Z,99.90
2023-03-23T22:29:41.104Z,99.90
2023-03-23T22:32:10.815Z,99.90
2023-03-23T22:34:38.012Z,99.90
2023-03-23T22:37:07.987Z,99.90
2023-03-23T22:39:35.400Z,99.90
2023-03-23T22:42:04.858Z,99.90
2023-03-23T22:44:33.088Z,99.90
2023-03-23T22:47:03.707Z,99.90
2023-03-23T22:49:36.198Z,99.90
2023-03-23T22:52:05.806Z,99.90
2023-03-23T22:54:32.753Z,99.90
2023-03-23T22:57:01.587Z,99.90
2023-03-23T22:59:28.765Z,99.90
2023-03-23T23:01:57.951Z,99.90
2023-03-23T23:04:25.418Z,99.90
2023-03-23T23:07:03.210Z,99.90
2023-03-23T23:09:44.713Z,99.90
2023-03-23T23:12:13.986Z,99.90
2023-03-23T23:14:48.890Z,99.90
2023-03-23T23:17:16.363Z,99.90
2023-03-23T23:19:46.604Z,99.90
2023-03-23T23:22:19.423Z,99.90
2023-03-23T23:24:47.363Z,99.90
2023-03-23T23:27:14.623Z,99.90
2023-03-23T23:29:43.109Z,99.90
2023-03-23T23:32:13.782Z,99.90
2023-03-23T23:34:44.192Z,99.90
2023-03-23T23:37:11.300Z,99.90
2023-03-23T23:39:41.226Z,99.90
2023-03-23T23:42:10.229Z,99.90
2023-03-23T23:44:38.695Z,99.90
2023-03-23T23:47:06.572Z,99.90
2023-03-23T23:49:37.825Z,99.90
2023-03-23T23:52:08.715Z,99.90
2023-03-23T23:54:37.508Z,99.90
2023-03-23T23:57:06.232Z,99.90
2023-03-23T23:59:37.104Z,99.90
